Time;durP1;ratioP1;P1;durP2;ratioP2;P2;SDS_P1;SDS_P2;PMS_P1;PMS_P2;Temp;Humidity;BMP_temperature;BMP_pressure;BME280_temperature;BME280_humidity;BME280_pressure;Samples;Min_cycle;Max_cycle;Signal;HPM_P1;HPM_P2
2021/11/05 00:01:28;;;;;;;13.68;1.50;;;;;;;7.77;95.26;101588.69;5032634;28;20083;-55
2021/11/05 00:03:53;;;;;;;12.85;2.80;;;;;;;7.73;95.13;101581.06;5025765;28;20030;-53
2021/11/05 00:06:19;;;;;;;19.63;1.58;;;;;;;7.66;95.14;101575.44;5013165;28;20034;-50
2021/11/05 00:08:44;;;;;;;19.48;1.40;;;;;;;7.61;95.17;101589.28;5012846;28;20491;-49
2021/11/05 00:11:09;;;;;;;12.18;1.30;;;;;;;7.55;95.18;101595.19;5011587;28;20086;-48
2021/11/05 00:13:36;;;;;;;9.43;1.30;;;;;;;7.53;95.25;101586.47;5028159;28;20026;-48
2021/11/05 00:16:01;;;;;;;10.98;1.95;;;;;;;7.50;95.16;101591.25;5012774;28;20064;-48
2021/11/05 00:18:27;;;;;;;13.65;2.08;;;;;;;7.48;95.46;101599.47;5012660;28;20021;-47
2021/11/05 00:20:52;;;;;;;11.68;1.75;;;;;;;7.48;95.67;101594.09;5018545;28;20025;-46
2021/11/05 00:23:18;;;;;;;13.20;1.70;;;;;;;7.49;95.67;101595.78;5029201;28;20041;-49
2021/11/05 00:25:44;;;;;;;14.25;1.55;;;;;;;7.53;95.89;101596.31;5011652;28;20033;-50
2021/11/05 00:28:09;;;;;;;14.40;1.50;;;;;;;7.55;95.83;101595.19;5012670;28;20018;-50
2021/11/05 00:30:35;;;;;;;10.13;1.55;;;;;;;7.55;96.01;101594.34;5011546;28;20445;-47
2021/11/05 00:33:00;;;;;;;13.98;1.83;;;;;;;7.57;96.34;101601.25;5012559;28;20049;-50
2021/11/05 00:35:26;;;;;;;8.70;1.38;;;;;;;7.58;96.49;101605.66;5024968;28;20029;-51
2021/11/05 00:37:51;;;;;;;14.95;2.00;;;;;;;7.65;96.48;101613.94;5031255;28;20034;-49
2021/11/05 00:40:17;;;;;;;14.07;1.90;;;;;;;7.64;96.09;101605.06;5031983;28;20021;-50
2021/11/05 00:42:43;;;;;;;14.75;2.40;;;;;;;7.63;96.25;101610.56;5032002;28;20048;-49
2021/11/05 00:45:10;;;;;;;17.08;3.30;;;;;;;7.61;96.17;101613.38;5016246;28;20500;-49
2021/11/05 00:47:35;;;;;;;17.00;2.05;;;;;;;7.61;96.12;101608.03;5011263;28;20030;-50
2021/11/05 00:50:00;;;;;;;19.40;2.40;;;;;;;7.62;96.04;101607.03;5013785;28;20053;-48
2021/11/05 00:52:26;;;;;;;27.98;2.15;;;;;;;7.66;96.52;101610.25;5011138;28;20061;-46
2021/11/05 00:54:51;;;;;;;21.90;2.10;;;;;;;7.68;96.46;101611.81;5025153;28;20037;-47
2021/11/05 00:57:17;;;;;;;25.38;2.40;;;;;;;7.69;95.99;101616.19;5032175;28;20033;-46
2021/11/05 00:59:42;;;;;;;17.30;3.47;;;;;;;7.74;96.41;101614.91;5030798;28;20080;-48
2021/11/05 01:02:08;;;;;;;21.15;2.05;;;;;;;7.81;96.31;101611.50;5013665;28;20022;-47
2021/11/05 01:04:33;;;;;;;14.55;2.00;;;;;;;7.92;96.19;101623.88;5024102;28;20029;-48
2021/11/05 01:06:59;;;;;;;23.58;2.60;;;;;;;7.91;96.17;101628.41;5016420;28;20121;-49
2021/11/05 01:09:24;;;;;;;21.35;1.65;;;;;;;7.90;95.99;101629.41;5016022;28;20030;-47
2021/11/05 01:11:50;;;;;;;54.47;5.60;;;;;;;7.91;95.80;101628.41;5016077;28;20377;-48
2021/11/05 01:14:16;;;;;;;26.05;2.10;;;;;;;7.93;96.03;101630.94;5023428;28;20500;-51
2021/11/05 01:16:41;;;;;;;23.20;1.65;;;;;;;7.91;96.10;101628.41;5018032;28;20026;-52
2021/11/05 01:19:07;;;;;;;20.05;2.45;;;;;;;7.88;95.54;101638.56;5015672;28;20018;-51
2021/11/05 01:21:32;;;;;;;13.43;2.03;;;;;;;7.86;95.52;101635.19;5015842;28;20026;-51
2021/11/05 01:23:57;;;;;;;19.85;2.15;;;;;;;7.84;95.74;101643.34;5020371;28;20753;-49
2021/11/05 01:26:23;;;;;;;25.05;2.38;;;;;;;7.84;95.74;101637.16;5035462;28;20053;-49
2021/11/05 01:28:49;;;;;;;17.70;1.45;;;;;;;7.84;95.64;101647.88;5044184;28;20064;-47
2021/11/05 01:31:14;;;;;;;25.30;1.52;;;;;;;7.86;95.32;101637.88;5037222;28;20420;-46
2021/11/05 01:33:40;;;;;;;15.95;1.70;;;;;;;7.84;95.43;101654.09;5033577;28;20486;-47
2021/11/05 01:36:05;;;;;;;14.13;1.50;;;;;;;7.81;95.23;101649.00;5035060;28;20067;-47
2021/11/05 01:38:31;;;;;;;18.05;1.88;;;;;;;7.82;95.37;101649.84;5033957;28;20018;-49
2021/11/05 01:40:56;;;;;;;21.95;1.75;;;;;;;7.81;95.86;101653.53;5035316;28;20060;-48
2021/11/05 01:43:21;;;;;;;14.20;1.92;;;;;;;7.79;95.53;101660.88;5032208;28;20456;-50
2021/11/05 01:45:48;;;;;;;14.98;1.70;;;;;;;7.76;95.95;101655.81;5033527;28;20408;-49
2021/11/05 01:48:13;;;;;;;21.80;2.20;;;;;;;7.74;96.02;101661.31;5033206;28;20033;-50
2021/11/05 01:50:39;;;;;;;15.80;1.90;;;;;;;7.72;96.10;101659.78;5019122;28;20076;-47
2021/11/05 01:53:04;;;;;;;18.25;1.63;;;;;;;7.67;96.28;101663.72;5030758;28;20033;-47
2021/11/05 01:55:30;;;;;;;16.30;1.48;;;;;;;7.66;95.43;101667.38;5014413;28;20049;-46
2021/11/05 01:57:55;;;;;;;24.42;2.20;;;;;;;7.63;95.68;101670.31;5015441;28;20034;-45
2021/11/05 02:00:25;;;;;;;14.10;1.98;;;;;;;7.64;95.62;101669.34;5014180;28;20388;-47
2021/11/05 02:02:51;;;;;;;16.52;1.88;;;;;;;7.63;96.02;101673.00;5015703;28;20084;-49
2021/11/05 02:05:18;;;;;;;13.65;1.63;;;;;;;7.61;96.25;101668.78;5033789;28;20029;-49
2021/11/05 02:07:47;;;;;;;11.57;2.15;;;;;;;7.59;96.06;101668.94;5035120;28;20104;-47
2021/11/05 02:10:12;;;;;;;10.98;1.65;;;;;;;7.58;96.53;101677.09;5035013;28;20109;-49
2021/11/05 02:12:38;;;;;;;24.55;2.70;;;;;;;7.51;96.19;101682.19;5034136;28;20083;-48
2021/11/05 02:15:04;;;;;;;19.48;2.92;;;;;;;7.46;96.07;101679.09;5030535;28;20041;-47
2021/11/05 02:17:30;;;;;;;21.92;2.83;;;;;;;7.39;96.35;101676.13;5015574;28;20026;-49
2021/11/05 02:19:59;;;;;;;18.17;1.77;;;;;;;7.35;95.95;101677.41;5016877;28;20531;-47
2021/11/05 02:22:24;;;;;;;11.55;1.20;;;;;;;7.31;95.95;101680.50;5035198;28;20473;-48
2021/11/05 02:24:50;;;;;;;22.85;2.20;;;;;;;7.20;95.32;101687.66;5016724;28;20049;-47
2021/11/05 02:27:15;;;;;;;18.45;2.00;;;;;;;7.17;95.62;101681.75;4997648;28;20030;-47
2021/11/05 02:29:41;;;;;;;19.05;1.50;;;;;;;7.17;96.00;101684.44;5005509;28;20087;-47
2021/11/05 02:32:07;;;;;;;22.20;2.22;;;;;;;7.19;96.01;101686.00;5030130;28;20392;-49
2021/11/05 02:34:33;;;;;;;22.33;2.10;;;;;;;7.18;95.72;101686.97;5032626;28;20026;-50
2021/11/05 02:37:02;;;;;;;28.33;1.77;;;;;;;7.21;95.79;101685.84;5033329;28;20446;-50
2021/11/05 02:39:27;;;;;;;15.30;1.55;;;;;;;7.20;95.99;101693.03;5034878;28;20045;-49
2021/11/05 02:41:53;;;;;;;15.40;1.30;;;;;;;7.22;95.80;101690.22;5033056;28;20025;-48
2021/11/05 02:44:19;;;;;;;14.85;1.30;;;;;;;7.25;95.43;101693.44;5022996;28;20028;-48
2021/11/05 02:46:44;;;;;;;8.18;0.90;;;;;;;7.26;94.92;101695.13;5033696;28;20038;-50
2021/11/05 02:49:10;;;;;;;19.13;1.52;;;;;;;7.25;94.59;101693.44;5026457;28;20028;-49
2021/11/05 02:51:37;;;;;;;7.47;0.98;;;;;;;7.28;94.25;101699.53;5014356;28;20029;-50
2021/11/05 02:54:04;;;;;;;15.85;1.15;;;;;;;7.28;93.89;101704.88;5027583;28;20538;-48
2021/11/05 02:56:30;;;;;;;16.02;1.60;;;;;;;7.29;93.85;101699.38;5032776;28;20043;-49
2021/11/05 02:58:58;;;;;;;19.40;1.40;;;;;;;7.29;93.95;101706.56;5033907;28;20033;-49
2021/11/05 03:01:25;;;;;;;11.98;0.93;;;;;;;7.28;93.65;101710.22;5033654;28;20022;-49
2021/11/05 03:03:50;;;;;;;14.32;1.08;;;;;;;7.28;93.89;101712.91;5019394;28;20041;-48
2021/11/05 03:06:16;;;;;;;21.85;2.50;;;;;;;7.28;93.88;101712.91;5012846;28;20026;-50
2021/11/05 03:08:41;;;;;;;6.03;2.42;;;;;;;7.27;93.76;101712.06;5023978;28;20034;-49
2021/11/05 03:11:11;;;;;;;19.80;1.25;;;;;;;7.23;93.65;101703.44;5033761;28;20061;-49
2021/11/05 03:13:37;;;;;;;10.82;1.05;;;;;;;7.24;93.84;101715.00;5013159;28;20076;-48
2021/11/05 03:16:03;;;;;;;13.55;1.50;;;;;;;7.24;93.90;101710.53;5012506;28;20042;-47
2021/11/05 03:18:31;;;;;;;17.70;1.20;;;;;;;7.26;93.96;101718.41;5015166;28;20037;-49
2021/11/05 03:20:56;;;;;;;17.58;3.08;;;;;;;7.30;93.70;101719.81;5024107;28;20061;-46
2021/11/05 03:23:21;;;;;;;17.77;1.77;;;;;;;7.33;93.90;101718.69;5024089;28;20176;-48
2021/11/05 03:25:47;;;;;;;14.88;2.65;;;;;;;7.37;94.10;101728.13;5013285;28;20056;-47
2021/11/05 03:28:12;;;;;;;15.63;1.80;;;;;;;7.43;93.91;101730.28;5012622;28;20022;-47
2021/11/05 03:30:38;;;;;;;13.00;1.60;;;;;;;7.43;93.97;101731.09;5012474;28;20026;-48
2021/11/05 03:33:04;;;;;;;18.00;2.13;;;;;;;7.45;93.76;101722.91;5019817;28;20511;-48
2021/11/05 03:35:29;;;;;;;14.77;1.27;;;;;;;7.50;93.92;101731.38;5019635;28;20484;-49
2021/11/05 03:37:55;;;;;;;13.50;1.25;;;;;;;7.51;93.70;101730.41;5013506;28;20032;-46
2021/11/05 03:40:20;;;;;;;9.45;1.15;;;;;;;7.55;93.73;101733.66;5012446;28;20032;-49
2021/11/05 03:42:51;;;;;;;10.10;1.08;;;;;;;7.56;93.17;101730.84;5012246;28;20060;-48
2021/11/05 03:45:18;;;;;;;14.82;1.08;;;;;;;7.60;92.54;101742.94;5012155;28;20510;-49
2021/11/05 03:47:43;;;;;;;16.60;1.40;;;;;;;7.63;92.89;101747.19;5017395;28;20025;-50
2021/11/05 03:50:09;;;;;;;11.90;1.27;;;;;;;7.59;92.33;101746.63;5030849;28;20534;-48
2021/11/05 03:52:34;;;;;;;7.40;0.95;;;;;;;7.56;92.36;101751.44;5011026;28;20034;-48
2021/11/05 03:55:00;;;;;;;13.82;2.28;;;;;;;7.58;92.65;101750.31;5013469;28;20376;-49
2021/11/05 03:57:25;;;;;;;13.48;1.08;;;;;;;7.64;92.27;101755.09;5032633;28;20069;-49
2021/11/05 03:59:51;;;;;;;7.45;1.15;;;;;;;7.66;91.97;101760.28;5032999;28;20030;-50
2021/11/05 04:02:16;;;;;;;8.88;1.30;;;;;;;7.63;91.55;101763.25;5031062;28;20030;-48
2021/11/05 04:04:42;;;;;;;11.23;1.38;;;;;;;7.61;91.08;101760.72;5032422;28;20035;-48
2021/11/05 04:07:07;;;;;;;18.45;1.25;;;;;;;7.64;90.81;101768.50;5031614;28;20084;-49
2021/11/05 04:09:33;;;;;;;21.67;1.83;;;;;;;7.61;90.54;101766.09;5032853;28;20037;-47
2021/11/05 04:11:58;;;;;;;10.15;0.77;;;;;;;7.57;90.46;101778.06;5031452;28;20028;-47
2021/11/05 04:14:23;;;;;;;13.32;1.58;;;;;;;7.52;90.97;101777.63;5013127;28;20486;-47
2021/11/05 04:16:49;;;;;;;8.77;0.70;;;;;;;7.50;90.89;101776.91;5017229;28;20040;-50
2021/11/05 04:19:14;;;;;;;10.02;1.90;;;;;;;7.51;90.85;101781.31;5030771;28;20030;-48
2021/11/05 04:21:39;;;;;;;14.48;1.30;;;;;;;7.48;91.08;101784.28;5032413;28;20075;-49
2021/11/05 04:24:06;;;;;;;17.55;2.35;;;;;;;7.47;91.82;101795.94;5016705;28;20049;-49
2021/11/05 04:26:32;;;;;;;14.32;1.90;;;;;;;7.47;91.89;101795.94;5011534;28;20109;-49
2021/11/05 04:28:58;;;;;;;13.45;2.15;;;;;;;7.48;91.81;101798.50;5012709;28;20462;-50
2021/11/05 04:31:23;;;;;;;11.23;1.80;;;;;;;7.53;91.97;101805.25;5021188;28;20182;-50
2021/11/05 04:33:49;;;;;;;16.95;2.15;;;;;;;7.51;91.87;101802.72;5036363;28;20033;-46
2021/11/05 04:36:15;;;;;;;6.70;1.23;;;;;;;7.52;91.73;101808.94;5032235;28;20103;-47
2021/11/05 04:38:41;;;;;;;17.77;2.05;;;;;;;7.54;92.12;101807.81;5032456;28;20391;-47
2021/11/05 04:41:06;;;;;;;16.48;1.67;;;;;;;7.56;92.33;101810.38;5031151;28;20117;-50
2021/11/05 04:43:32;;;;;;;18.30;1.52;;;;;;;7.58;92.01;101814.59;5017908;28;20045;-51
2021/11/05 04:45:57;;;;;;;18.67;1.85;;;;;;;7.58;92.04;101819.97;5012855;28;20044;-47
2021/11/05 04:48:23;;;;;;;15.50;1.45;;;;;;;7.58;91.66;101824.44;5012402;28;20029;-47
2021/11/05 04:50:48;;;;;;;22.75;2.50;;;;;;;7.59;92.15;101828.84;5011463;28;20389;-50
2021/11/05 04:53:13;;;;;;;17.48;2.35;;;;;;;7.60;92.12;101839.41;5011413;28;20022;-47
2021/11/05 04:55:39;;;;;;;14.85;2.08;;;;;;;7.77;92.19;101834.38;5011199;28;20059;-47
2021/11/05 04:58:04;;;;;;;18.15;1.85;;;;;;;7.80;92.07;101839.44;5011183;28;20033;-46
2021/11/05 05:00:30;;;;;;;19.33;1.50;;;;;;;7.80;92.57;101839.44;5012361;28;20042;-49
2021/11/05 05:02:56;;;;;;;18.00;1.80;;;;;;;7.83;92.78;101844.53;5014355;28;20034;-50
2021/11/05 05:05:22;;;;;;;16.17;1.50;;;;;;;7.83;93.07;101841.84;5011067;28;20054;-48
2021/11/05 05:07:47;;;;;;;14.27;1.60;;;;;;;7.84;93.41;101846.19;5018842;28;20033;-48
2021/11/05 05:10:13;;;;;;;21.08;2.38;;;;;;;7.83;93.32;101849.88;5030693;28;20047;-47
2021/11/05 05:12:39;;;;;;;16.20;1.70;;;;;;;7.79;93.27;101846.63;5027721;28;20040;-47
2021/11/05 05:15:06;;;;;;;27.38;2.63;;;;;;;7.73;93.12;101865.94;5032007;28;20033;-46
2021/11/05 05:17:32;;;;;;;15.35;1.95;;;;;;;7.66;92.51;101854.94;5031385;28;20104;-47
2021/11/05 05:19:57;;;;;;;18.45;1.77;;;;;;;7.65;92.89;101863.94;5030229;28;20512;-46
2021/11/05 05:22:23;;;;;;;22.95;2.28;;;;;;;7.63;93.24;101871.25;5025711;28;20038;-47
2021/11/05 05:24:48;;;;;;;12.85;2.72;;;;;;;7.60;93.32;101866.19;5020264;28;20180;-45
2021/11/05 05:27:13;;;;;;;19.42;2.25;;;;;;;7.60;93.30;101865.34;5024155;28;20033;-47
2021/11/05 05:29:39;;;;;;;14.05;2.22;;;;;;;7.61;93.43;101872.38;5000500;28;20037;-48
2021/11/05 05:32:05;;;;;;;21.90;2.38;;;;;;;7.68;93.46;101877.06;5013950;28;20385;-48
2021/11/05 05:34:31;;;;;;;9.95;1.83;;;;;;;7.68;93.32;101874.38;5031757;28;20041;-45
2021/11/05 05:36:56;;;;;;;16.45;2.05;;;;;;;7.70;93.33;101876.94;5031517;28;20025;-44
2021/11/05 05:39:21;;;;;;;18.95;1.85;;;;;;;7.70;93.20;101872.41;5025454;28;20021;-50
2021/11/05 05:41:47;;;;;;;12.13;1.70;;;;;;;7.74;92.69;101883.72;5022126;28;20042;-48
2021/11/05 05:44:12;;;;;;;22.77;2.08;;;;;;;7.71;92.38;101889.34;5022777;28;20030;-48
2021/11/05 05:46:38;;;;;;;13.55;2.10;;;;;;;7.68;92.24;101889.63;5019284;28;20034;-48
2021/11/05 05:49:03;;;;;;;41.70;3.90;;;;;;;7.67;92.64;101894.13;5021531;28;20069;-47
2021/11/05 05:51:32;;;;;;;20.77;2.92;;;;;;;7.65;92.17;101896.09;5016833;28;20469;-49
2021/11/05 05:53:58;;;;;;;13.55;2.50;;;;;;;7.63;92.43;101897.22;5016981;28;20060;-47
2021/11/05 05:56:23;;;;;;;11.02;3.05;;;;;;;7.65;92.21;101901.44;5019517;28;20126;-47
2021/11/05 05:58:48;;;;;;;13.55;2.38;;;;;;;7.62;92.20;101904.41;5019478;28;20159;-49
2021/11/05 06:01:14;;;;;;;12.35;2.17;;;;;;;7.58;92.37;101905.69;5031881;28;20036;-46
2021/11/05 06:03:39;;;;;;;16.65;3.40;;;;;;;7.53;92.43;101912.41;5019140;28;20029;-48
2021/11/05 06:06:04;;;;;;;19.20;2.55;;;;;;;7.46;92.25;101912.97;5033750;28;20064;-50
2021/11/05 06:08:31;;;;;;;11.07;2.88;;;;;;;7.39;92.49;101922.50;5033337;28;20064;-48
2021/11/05 06:10:57;;;;;;;17.48;3.75;;;;;;;7.34;92.80;101918.53;5030607;28;20046;-50
2021/11/05 06:13:23;;;;;;;24.88;3.22;;;;;;;7.32;93.50;101928.53;5026243;28;20038;-48
2021/11/05 06:15:48;;;;;;;19.55;3.40;;;;;;;7.34;93.31;101930.09;5017973;28;20044;-48
2021/11/05 06:18:13;;;;;;;18.10;3.47;;;;;;;7.35;93.56;101936.31;5035028;28;20037;-48
2021/11/05 06:20:39;;;;;;;12.07;2.97;;;;;;;7.30;93.67;101935.88;5033700;28;20025;-48
2021/11/05 06:23:04;;;;;;;22.25;3.47;;;;;;;7.23;93.77;101941.75;5033222;28;20026;-48
2021/11/05 06:25:30;;;;;;;6.38;2.00;;;;;;;7.17;93.85;101949.47;5032797;28;20451;-47
2021/11/05 06:27:55;;;;;;;14.85;2.03;;;;;;;7.10;93.84;101954.50;5035062;28;20029;-47
2021/11/05 06:30:20;;;;;;;20.40;2.65;;;;;;;7.03;93.88;101953.34;5023609;28;20112;-47
2021/11/05 06:32:46;;;;;;;18.80;2.83;;;;;;;6.99;93.95;101954.56;5026539;28;20034;-47
2021/11/05 06:35:12;;;;;;;12.80;2.20;;;;;;;6.93;94.44;101952.44;5016680;28;20108;-47
2021/11/05 06:37:38;;;;;;;12.85;2.00;;;;;;;6.87;94.53;101961.81;5034590;28;20465;-47
2021/11/05 06:40:06;;;;;;;17.35;2.20;;;;;;;6.86;94.78;101956.59;5032815;28;20035;-49
2021/11/05 06:42:31;;;;;;;8.13;2.13;;;;;;;6.80;95.03;101961.50;5034497;28;20163;-48
2021/11/05 06:44:57;;;;;;;13.18;2.92;;;;;;;6.76;94.93;101967.22;5033942;28;20105;-47
2021/11/05 06:47:22;;;;;;;17.20;2.08;;;;;;;6.75;95.25;101976.25;5000040;28;20048;-48
2021/11/05 06:49:47;;;;;;;7.40;2.35;;;;;;;6.72;95.17;101973.84;5030086;28;20037;-48
2021/11/05 06:52:13;;;;;;;11.30;2.90;;;;;;;6.70;95.09;101981.13;5032201;28;20451;-45
2021/11/05 06:54:38;;;;;;;15.20;3.53;;;;;;;6.69;95.23;101982.09;5023617;28;20033;-48
2021/11/05 06:57:05;;;;;;;9.98;3.03;;;;;;;6.67;95.26;101984.06;5033520;28;20053;-48
2021/11/05 06:59:31;;;;;;;16.57;2.87;;;;;;;6.67;95.31;101998.28;5024661;28;20445;-48
2021/11/05 07:01:56;;;;;;;12.20;2.72;;;;;;;6.69;95.28;101998.13;5033231;28;20033;-48
2021/11/05 07:04:22;;;;;;;17.98;3.40;;;;;;;6.70;95.66;101997.19;5023107;28;20030;-48
2021/11/05 07:06:47;;;;;;;19.30;3.78;;;;;;;6.72;95.73;102004.09;5016429;28;20025;-48
2021/11/05 07:09:14;;;;;;;16.95;3.80;;;;;;;6.75;95.83;102003.84;5024889;28;20025;-47
2021/11/05 07:11:40;;;;;;;23.77;5.90;;;;;;;6.80;96.06;102006.13;5023459;28;20021;-47
2021/11/05 07:14:05;;;;;;;16.40;5.63;;;;;;;6.87;96.07;102011.81;5033186;28;20017;-50
2021/11/05 07:16:33;;;;;;;21.45;5.43;;;;;;;6.96;96.24;102017.25;5024716;28;20561;-48
2021/11/05 07:18:58;;;;;;;23.88;5.15;;;;;;;7.11;96.37;102028.50;5013117;28;20030;-49
2021/11/05 07:21:24;;;;;;;17.05;6.65;;;;;;;7.41;96.72;102033.03;5013474;28;20114;-51
2021/11/05 07:23:49;;;;;;;23.58;4.13;;;;;;;7.86;96.92;102045.25;5025827;28;20041;-48
2021/11/05 07:26:15;;;;;;;23.73;4.00;;;;;;;8.21;97.08;102052.00;5028521;28;20025;-48
2021/11/05 07:28:41;;;;;;;26.30;3.75;;;;;;;8.40;96.78;102056.59;5019476;28;20099;-47
2021/11/05 07:31:06;;;;;;;21.17;3.85;;;;;;;8.60;95.95;102044.06;5030569;28;20034;-50
2021/11/05 07:33:32;;;;;;;20.17;2.92;;;;;;;8.75;94.56;102064.16;5027795;28;20473;-48
2021/11/05 07:35:59;;;;;;;15.52;2.88;;;;;;;8.78;93.35;102055.81;5016721;28;20044;-46
2021/11/05 07:38:24;;;;;;;18.83;2.40;;;;;;;8.82;92.34;102069.78;5029922;28;20055;-46
2021/11/05 07:40:50;;;;;;;20.73;2.75;;;;;;;8.84;91.54;102076.72;5022429;28;20059;-46
2021/11/05 07:43:15;;;;;;;14.35;3.03;;;;;;;8.85;91.14;102083.81;5017460;28;20025;-48
2021/11/05 07:45:41;;;;;;;14.65;2.70;;;;;;;8.89;91.07;102087.88;5017123;28;20018;-46
2021/11/05 07:48:06;;;;;;;10.05;2.40;;;;;;;8.96;91.23;102094.41;5028993;28;20477;-47
2021/11/05 07:50:34;;;;;;;33.58;3.15;;;;;;;9.12;91.44;102098.38;5021736;28;20604;-47
2021/11/05 07:53:04;;;;;;;16.33;2.33;;;;;;;9.17;90.72;102099.63;5024866;28;20128;-48
2021/11/05 07:55:30;;;;;;;15.90;2.88;;;;;;;9.21;90.57;102109.09;5019694;28;20469;-46
2021/11/05 07:57:56;;;;;;;19.98;2.30;;;;;;;9.53;90.25;102109.75;5021280;28;20087;-50
2021/11/05 08:00:21;;;;;;;20.15;2.10;;;;;;;9.77;88.41;102112.84;5032734;28;20492;-49
2021/11/05 08:02:47;;;;;;;19.42;2.28;;;;;;;9.88;87.12;102119.91;5025398;28;20091;-47
2021/11/05 08:05:12;;;;;;;28.35;2.65;;;;;;;9.85;86.45;102121.03;5031107;28;20088;-47
2021/11/05 08:07:40;;;;;;;20.20;2.17;;;;;;;9.73;86.00;102119.50;5011747;28;20107;-47
2021/11/05 08:10:06;;;;;;;22.60;2.53;;;;;;;10.00;88.41;102115.16;5030904;28;20079;-46
2021/11/05 08:12:33;;;;;;;24.05;1.90;;;;;;;11.01;87.97;102116.06;5022106;28;20102;-48
2021/11/05 08:14:59;;;;;;;23.73;2.67;;;;;;;12.23;83.25;102126.91;5027827;28;20030;-48
2021/11/05 08:17:25;;;;;;;19.10;1.42;;;;;;;13.05;78.01;102126.31;5019241;28;20465;-50
2021/11/05 08:19:50;;;;;;;13.73;1.50;;;;;;;13.64;74.93;102140.59;5034450;28;20460;-48
2021/11/05 08:22:17;;;;;;;16.27;1.83;;;;;;;14.54;69.79;102140.38;5032190;28;20033;-48
2021/11/05 08:24:43;;;;;;;13.40;2.22;;;;;;;15.44;69.09;102141.66;5028066;28;20045;-51
2021/11/05 08:27:09;;;;;;;17.75;5.57;;;;;;;15.66;64.01;102150.78;5011620;28;20473;-48
2021/11/05 08:29:34;;;;;;;13.63;1.73;;;;;;;15.91;62.11;102149.56;5011951;28;20059;-48
2021/11/05 08:32:00;;;;;;;9.07;1.83;;;;;;;16.57;60.60;102154.22;5025997;28;20032;-47
2021/11/05 08:34:25;;;;;;;11.38;2.10;;;;;;;17.22;57.67;102153.34;5018212;28;20124;-51
2021/11/05 08:36:50;;;;;;;9.65;2.17;;;;;;;17.50;56.45;102160.69;5020713;28;20496;-48
2021/11/05 08:39:16;;;;;;;13.15;1.73;;;;;;;17.88;55.96;102168.59;5028295;28;20055;-50
2021/11/05 08:41:41;;;;;;;10.85;1.63;;;;;;;18.01;54.87;102174.16;5023419;28;20029;-49
2021/11/05 08:44:07;;;;;;;10.80;1.48;;;;;;;17.70;57.98;102175.34;5021677;28;20029;-49
2021/11/05 08:46:32;;;;;;;15.75;1.58;;;;;;;17.37;56.32;102175.03;5030563;28;20033;-49
2021/11/05 08:49:01;;;;;;;15.98;2.65;;;;;;;17.21;58.22;102173.41;5028289;28;20037;-48
2021/11/05 08:51:28;;;;;;;8.50;1.50;;;;;;;17.18;59.53;102184.69;5024439;28;20473;-48
2021/11/05 08:53:53;;;;;;;10.87;1.80;;;;;;;17.22;58.67;102186.00;5023935;28;20160;-48
2021/11/05 08:56:19;;;;;;;14.88;1.58;;;;;;;16.99;59.10;102191.59;5022009;28;20076;-48
2021/11/05 08:58:45;;;;;;;10.10;1.50;;;;;;;17.24;60.26;102194.78;5031848;28;20029;-47
2021/11/05 09:01:11;;;;;;;7.63;1.20;;;;;;;17.42;58.15;102205.22;5021669;28;20112;-48
2021/11/05 09:03:36;;;;;;;11.95;1.27;;;;;;;17.15;58.60;102201.38;5019097;28;20034;-49
2021/11/05 09:06:02;;;;;;;5.45;1.10;;;;;;;17.17;60.25;102203.91;5018820;28;20026;-47
2021/11/05 09:08:30;;;;;;;8.65;1.17;;;;;;;16.80;59.11;102209.34;5031926;28;20026;-50
2021/11/05 09:11:00;;;;;;;11.23;1.17;;;;;;;16.50;59.71;102218.53;5025508;28;20507;-50
2021/11/05 09:13:26;;;;;;;9.77;1.40;;;;;;;16.06;61.39;102211.16;5028244;28;20045;-48
2021/11/05 09:15:52;;;;;;;14.55;1.55;;;;;;;15.79;61.86;102213.47;5031795;28;20400;-49
2021/11/05 09:18:17;;;;;;;7.95;0.90;;;;;;;15.01;64.37;102218.06;5028895;28;20022;-50
2021/11/05 09:20:42;;;;;;;19.83;1.88;;;;;;;14.32;66.98;102225.03;5023801;28;20446;-50
2021/11/05 09:23:09;;;;;;;8.68;1.10;;;;;;;14.01;67.97;102220.38;5025277;28;20025;-46
2021/11/05 09:25:34;;;;;;;8.70;1.20;;;;;;;13.72;67.10;102229.84;5033412;28;20535;-47
2021/11/05 09:28:01;;;;;;;14.80;1.63;;;;;;;13.61;69.56;102235.56;5033930;28;20029;-47
2021/11/05 09:30:27;;;;;;;7.00;1.20;;;;;;;13.35;70.35;102231.16;5031943;28;20468;-50
2021/11/05 09:32:53;;;;;;;16.30;1.70;;;;;;;13.44;69.87;102245.53;5034244;28;20064;-49
2021/11/05 09:35:23;;;;;;;9.85;1.23;;;;;;;13.15;70.53;102240.53;5025659;28;20029;-47
2021/11/05 09:37:51;;;;;;;16.63;1.98;;;;;;;13.07;71.07;102249.47;5030229;28;20065;-46
2021/11/05 09:40:19;;;;;;;14.85;1.60;;;;;;;12.89;73.36;102249.56;5014639;28;20032;-47
2021/11/05 09:42:46;;;;;;;12.20;1.80;;;;;;;13.07;73.05;102259.44;5014647;28;20524;-48
2021/11/05 09:45:13;;;;;;;21.70;1.55;;;;;;;13.44;72.25;102266.34;5019230;28;20120;-46
2021/11/05 09:47:40;;;;;;;15.70;1.70;;;;;;;14.10;70.04;102262.66;5020323;28;20035;-48
2021/11/05 09:50:05;;;;;;;11.77;1.67;;;;;;;14.53;69.09;102274.13;5032099;28;20060;-47
2021/11/05 09:52:31;;;;;;;20.95;1.92;;;;;;;14.87;67.92;102273.84;5026850;28;20069;-50
2021/11/05 09:54:58;;;;;;;14.93;1.48;;;;;;;15.59;65.02;102275.50;5015517;28;20026;-48
2021/11/05 09:57:25;;;;;;;13.35;2.08;;;;;;;15.26;63.17;102285.69;5014569;28;20100;-50
2021/11/05 09:59:50;;;;;;;10.57;2.05;;;;;;;14.79;64.48;102289.28;5027768;28;20488;-46
2021/11/05 10:02:16;;;;;;;17.83;2.08;;;;;;;14.68;65.10;102283.22;5029903;28;20389;-48
2021/11/05 10:04:42;;;;;;;17.70;1.58;;;;;;;14.49;66.14;102299.84;5025181;28;20518;-50
2021/11/05 10:07:09;;;;;;;24.20;2.38;;;;;;;14.36;66.53;102294.94;5034460;28;20041;-49
2021/11/05 10:09:43;;;;;;;13.45;2.45;;;;;;;14.34;67.53;102302.41;5027611;28;20033;-46
2021/11/05 10:12:11;;;;;;;30.05;2.83;;;;;;;14.54;66.23;102292.06;5030703;28;20393;-47
2021/11/05 10:14:37;;;;;;;21.92;2.63;;;;;;;15.01;67.23;102304.81;5026749;28;20029;-50
2021/11/05 10:17:10;;;;;;;20.77;1.83;;;;;;;15.58;65.23;102299.06;5023815;28;20117;-47
2021/11/05 10:19:56;;;;;;;20.23;1.95;;;;;;;16.36;61.03;102296.28;5034488;28;20055;-47
2021/11/05 10:22:48;;;;;;;18.58;2.45;;;;;;;16.50;61.07;102302.75;5034583;28;20058;-47
2021/11/05 10:25:31;;;;;;;14.90;2.13;;;;;;;16.18;60.26;102302.88;5034695;28;20065;-49
2021/11/05 10:28:11;;;;;;;18.60;2.22;;;;;;;15.56;59.46;102303.84;5034443;28;20053;-49
2021/11/05 10:30:51;;;;;;;25.95;2.00;;;;;;;15.70;59.96;102307.69;5034543;28;20030;-47
2021/11/05 10:33:18;;;;;;;25.88;2.28;;;;;;;15.93;59.65;102309.53;5033760;28;20032;-50
2021/11/05 10:35:46;;;;;;;23.67;2.72;;;;;;;15.90;61.91;102315.34;5034092;28;20036;-50
2021/11/05 10:38:12;;;;;;;;;;;;;;;16.58;61.75;102319.00;5034637;28;20021;-50
2021/11/05 10:40:42;;;;;;;27.27;2.28;;;;;;;17.25;60.06;102326.25;5033199;28;20012;-47
2021/11/05 10:43:10;;;;;;;12.07;2.05;;;;;;;18.13;54.44;102324.28;5034405;28;20033;-47
2021/11/05 10:45:39;;;;;;;17.60;2.17;;;;;;;18.23;55.07;102327.50;5033395;28;20041;-50
2021/11/05 10:48:10;;;;;;;21.65;1.85;;;;;;;17.32;55.80;102328.03;5035047;28;20033;-48
2021/11/05 10:50:56;;;;;;;12.23;1.65;;;;;;;16.80;54.22;102328.97;5035569;28;20033;-48
2021/11/05 10:53:27;;;;;;;16.25;1.73;;;;;;;16.52;57.22;102336.03;5033912;28;20037;-49
2021/11/05 10:56:01;;;;;;;12.38;1.92;;;;;;;16.50;55.71;102332.66;5032533;28;20057;-51
2021/11/05 10:58:33;;;;;;;13.10;1.92;;;;;;;16.57;55.64;102329.03;5032390;28;20083;-49
2021/11/05 11:01:05;;;;;;;25.20;2.78;;;;;;;15.87;58.05;102343.69;5033668;28;20029;-50
2021/11/05 11:03:41;;;;;;;15.95;2.25;;;;;;;15.24;60.65;102348.25;5033623;28;20045;-49
2021/11/05 11:06:10;;;;;;;21.02;2.13;;;;;;;14.95;59.20;102343.44;5032809;28;20124;-47
2021/11/05 11:08:39;;;;;;;14.95;1.67;;;;;;;14.62;63.24;102343.53;5033111;28;20029;-47
2021/11/05 11:11:20;;;;;;;27.95;2.00;;;;;;;14.53;62.55;102344.56;5033804;28;20029;-48
2021/11/05 11:13:48;;;;;;;22.27;1.77;;;;;;;14.71;61.06;102349.78;5033378;28;20033;-48
2021/11/05 11:16:18;;;;;;;;;;;;;;;14.51;61.47;102346.56;5033909;28;20026;-48
2021/11/05 11:18:52;;;;;;;8.90;1.08;;;;;;;14.75;60.77;102353.84;5033411;28;20391;-47
2021/11/05 11:21:19;;;;;;;25.48;2.35;;;;;;;14.80;61.62;102356.06;5033238;28;20029;-51